Time;durP1;ratioP1;P1;durP2;ratioP2;P2;SDS_P1;SDS_P2;PMS_P1;PMS_P2;Temp;Humidity;BMP_temperature;BMP_pressure;BME280_temperature;BME280_humidity;BME280_pressure;Samples;Min_cycle;Max_cycle;Signal;HPM_P1;HPM_P2
2023/05/23 00:01:48;;;;;;;15.88;7.85;;;;;;;13.58;91.31;99885.03;5067586;28;20158;-46
2023/05/23 00:04:17;;;;;;;11.15;7.90;;;;;;;13.55;91.66;99889.53;5070298;28;20050;-38
2023/05/23 00:06:45;;;;;;;;;;;;;;;13.51;91.65;99882.72;5088920;28;20139;-37
2023/05/23 00:09:13;;;;;;;14.73;7.60;;;;;;;13.44;91.97;99884.78;5070787;28;19925;-38
2023/05/23 00:11:43;;;;;;;11.35;7.90;;;;;;;13.40;92.12;99877.97;5053768;28;20031;-38
2023/05/23 00:14:14;;;;;;;11.93;8.23;;;;;;;13.38;92.34;99885.03;5067858;28;20032;-37
2023/05/23 00:16:45;;;;;;;13.95;8.18;;;;;;;13.38;92.49;99881.56;5069227;28;20056;-37
2023/05/23 00:19:13;;;;;;;12.57;8.50;;;;;;;13.35;92.70;99872.09;5068041;28;20040;-37
2023/05/23 00:21:40;;;;;;;13.52;8.57;;;;;;;13.22;93.27;99857.03;5088353;28;20361;-37
2023/05/23 00:24:06;;;;;;;19.63;8.80;;;;;;;13.20;93.58;99854.47;5087926;28;20047;-39
2023/05/23 00:26:33;;;;;;;13.57;8.70;;;;;;;13.34;93.71;99885.25;5053855;28;20040;-37
2023/05/23 00:28:59;;;;;;;16.35;8.98;;;;;;;13.32;93.97;99889.66;5087995;28;20047;-38
2023/05/23 00:31:25;;;;;;;14.98;8.18;;;;;;;13.24;94.25;99868.25;5070202;28;20044;-37
2023/05/23 00:33:50;;;;;;;11.23;8.27;;;;;;;13.29;94.40;99879.38;5069412;28;20067;-38
2023/05/23 00:36:17;;;;;;;14.68;8.48;;;;;;;13.31;94.46;99885.34;5053872;28;20135;-37
2023/05/23 00:38:44;;;;;;;14.63;8.98;;;;;;;13.29;94.58;99881.97;5069679;28;20151;-37
2023/05/23 00:41:11;;;;;;;10.60;8.32;;;;;;;13.14;94.82;99858.19;5070522;28;20036;-37
2023/05/23 00:43:37;;;;;;;12.40;8.80;;;;;;;13.11;95.15;99852.22;5087528;28;20059;-37
2023/05/23 00:46:03;;;;;;;12.15;8.30;;;;;;;13.11;95.40;99860.94;5070166;28;20032;-38
2023/05/23 00:48:29;;;;;;;14.88;8.90;;;;;;;13.08;95.59;99854.97;5087899;28;20055;-37
2023/05/23 00:50:56;;;;;;;12.82;8.65;;;;;;;13.19;95.95;99881.47;5083579;28;20039;-37
2023/05/23 00:53:23;;;;;;;13.30;9.05;;;;;;;13.17;95.54;99874.66;5080593;28;20748;-36
2023/05/23 00:55:49;;;;;;;18.95;9.23;;;;;;;12.99;96.04;99850.97;5053481;28;20047;-37
2023/05/23 00:58:16;;;;;;;13.30;8.60;;;;;;;13.14;95.93;99875.59;5048440;28;20063;-36
2023/05/23 01:00:43;;;;;;;14.35;9.30;;;;;;;13.13;96.13;99873.94;5053110;28;20861;-37
2023/05/23 01:03:16;;;;;;;14.77;9.43;;;;;;;13.11;96.36;99871.38;5069895;28;20424;-37
2023/05/23 01:05:46;;;;;;;13.65;9.13;;;;;;;13.11;96.38;99867.88;5067330;28;20051;-37
2023/05/23 01:08:14;;;;;;;17.05;9.82;;;;;;;12.87;95.91;99832.38;5086533;28;20769;-37
2023/05/23 01:10:40;;;;;;;21.02;9.15;;;;;;;13.11;96.80;99873.09;5087408;28;20495;-37
2023/05/23 01:13:10;;;;;;;17.98;9.70;;;;;;;13.11;96.56;99868.78;5069205;28;20123;-37
2023/05/23 01:15:54;;;;;;;14.40;9.15;;;;;;;13.12;96.71;99867.00;5067467;28;20048;-37
2023/05/23 01:18:33;;;;;;;15.55;9.57;;;;;;;12.99;96.78;99840.53;5050503;28;20716;-38
2023/05/23 01:21:05;;;;;;;12.95;9.43;;;;;;;13.13;96.90;99864.34;5031977;28;20344;-36
2023/05/23 01:23:51;;;;;;;14.48;9.15;;;;;;;13.14;96.86;99855.56;5066198;28;20144;-37
2023/05/23 01:26:27;;;;;;;13.93;8.98;;;;;;;13.03;96.93;99844.69;5063149;28;20040;-38
2023/05/23 01:29:09;;;;;;;13.05;9.18;;;;;;;13.19;96.62;99859.78;5045411;28;20459;-37
2023/05/23 01:31:43;;;;;;;15.13;8.98;;;;;;;13.21;96.62;99864.00;5066469;28;20032;-37
2023/05/23 01:34:09;;;;;;;14.10;9.00;;;;;;;13.23;96.68;99861.34;5067565;28;20043;-37
2023/05/23 01:36:39;;;;;;;15.85;9.45;;;;;;;13.09;96.59;99826.16;5049472;28;20047;-37
2023/05/23 01:39:05;;;;;;;16.25;9.95;;;;;;;13.27;96.26;99855.91;5034750;28;20043;-38
2023/05/23 01:41:31;;;;;;;17.73;10.10;;;;;;;13.28;95.56;99859.38;5087719;28;20032;-38
2023/05/23 01:43:58;;;;;;;13.57;9.13;;;;;;;13.29;95.69;99861.94;5070347;28;20469;-38
2023/05/23 01:46:26;;;;;;;19.55;9.50;;;;;;;13.30;95.43;99860.16;5053029;28;20050;-38
2023/05/23 01:48:53;;;;;;;14.23;9.73;;;;;;;13.19;95.29;99844.94;5068573;28;20035;-39
2023/05/23 01:51:21;;;;;;;14.15;9.48;;;;;;;13.32;95.10;99863.56;5069371;28;20040;-39
2023/05/23 01:53:48;;;;;;;15.77;9.80;;;;;;;13.32;95.00;99866.16;5071374;28;20087;-38
2023/05/23 01:56:14;;;;;;;14.82;9.65;;;;;;;13.20;95.22;99851.84;5053395;28;20493;-36
2023/05/23 01:58:40;;;;;;;13.55;9.63;;;;;;;13.39;94.03;99868.47;5056204;28;20040;-38
2023/05/23 02:01:06;;;;;;;13.57;9.30;;;;;;;13.41;93.95;99857.94;5089905;28;20075;-37
2023/05/23 02:03:32;;;;;;;15.77;9.55;;;;;;;13.38;93.60;99845.88;5056130;28;20075;-38
2023/05/23 02:05:58;;;;;;;14.68;9.20;;;;;;;13.28;93.36;99828.91;5072479;28;20051;-38
2023/05/23 02:08:24;;;;;;;16.67;9.82;;;;;;;13.43;93.12;99853.50;5090638;28;20104;-39
2023/05/23 02:10:49;;;;;;;16.88;8.90;;;;;;;13.45;93.15;99856.91;5090674;28;20046;-38
2023/05/23 02:13:15;;;;;;;16.80;9.32;;;;;;;13.35;93.01;99829.47;5056245;28;20212;-38
2023/05/23 02:15:42;;;;;;;17.83;9.30;;;;;;;13.49;92.66;99854.09;5090282;28;20498;-38
2023/05/23 02:18:08;;;;;;;13.00;9.60;;;;;;;13.57;92.46;99845.91;5072106;28;20047;-38
2023/05/23 02:20:58;;;;;;;15.93;9.38;;;;;;;13.62;91.89;99859.59;5055860;28;20068;-39
2023/05/23 02:23:24;;;;;;;16.70;9.05;;;;;;;13.67;91.48;99844.56;5090991;28;20536;-38
2023/05/23 02:25:50;;;;;;;16.10;8.88;;;;;;;13.71;91.10;99837.47;5055104;28;20048;-38
2023/05/23 02:28:16;;;;;;;16.27;9.18;;;;;;;13.76;90.74;99841.56;5055330;28;20533;-39
2023/05/23 02:30:42;;;;;;;19.52;9.27;;;;;;;13.62;90.31;99833.47;5072433;28;20521;-38
2023/05/23 02:33:09;;;;;;;15.73;9.18;;;;;;;13.81;89.49;99851.81;5071649;28;20043;-38
2023/05/23 02:35:35;;;;;;;16.27;9.15;;;;;;;13.74;88.97;99832.94;5072264;28;20047;-39
2023/05/23 02:38:01;;;;;;;13.98;8.30;;;;;;;13.75;88.69;99828.56;5089202;28;20038;-38
2023/05/23 02:40:27;;;;;;;12.95;8.40;;;;;;;13.65;88.10;99806.38;5054445;28;20036;-39
2023/05/23 02:42:56;;;;;;;16.25;9.05;;;;;;;13.78;87.83;99812.75;5072363;28;20093;-37
2023/05/23 02:45:23;;;;;;;19.40;8.77;;;;;;;13.91;87.66;99835.66;5070766;28;20044;-39
2023/05/23 02:47:49;;;;;;;19.80;9.88;;;;;;;13.66;87.38;99793.22;5072160;28;20032;-38
2023/05/23 02:50:15;;;;;;;16.17;9.27;;;;;;;13.95;87.59;99852.03;5055941;28;20050;-39
2023/05/23 02:52:41;;;;;;;16.65;9.43;;;;;;;13.96;87.40;99844.13;5047673;28;20112;-38
2023/05/23 02:55:08;;;;;;;16.95;9.07;;;;;;;13.99;87.19;99849.22;5054987;28;20472;-38
2023/05/23 02:57:40;;;;;;;23.70;11.27;;;;;;;14.03;87.03;99841.25;5071325;28;20138;-38
2023/05/23 03:00:08;;;;;;;14.82;8.73;;;;;;;13.93;86.84;99812.03;5070758;28;20127;-38
2023/05/23 03:02:35;;;;;;;17.08;8.65;;;;;;;14.06;85.99;99833.25;5052013;28;20489;-38
2023/05/23 03:05:01;;;;;;;17.85;8.88;;;;;;;14.13;85.57;99850.38;5069274;28;20123;-37
2023/05/23 03:07:32;;;;;;;17.27;8.95;;;;;;;14.08;84.66;99841.88;5072334;28;20097;-38
2023/05/23 03:09:59;;;;;;;;;;;;;;;14.21;83.83;99850.84;5072280;28;20063;-37
2023/05/23 03:12:27;;;;;;;13.63;8.30;;;;;;;14.16;83.53;99848.44;5069181;28;19927;-39
2023/05/23 03:14:53;;;;;;;12.35;7.85;;;;;;;14.13;82.71;99837.28;5071516;28;20043;-38
2023/05/23 03:17:19;;;;;;;12.13;7.53;;;;;;;14.30;82.32;99863.47;5053694;28;20435;-37
2023/05/23 03:19:44;;;;;;;14.18;7.93;;;;;;;14.35;81.74;99853.66;5071599;28;20032;-40
2023/05/23 03:22:10;;;;;;;14.55;8.00;;;;;;;14.43;80.64;99850.72;5071360;28;20122;-39
2023/05/23 03:24:36;;;;;;;13.05;7.18;;;;;;;14.53;79.79;99859.81;5089478;28;20047;-39
2023/05/23 03:27:03;;;;;;;17.67;7.78;;;;;;;14.64;78.86;99858.41;5089454;28;20050;-39
2023/05/23 03:29:28;;;;;;;12.57;6.88;;;;;;;14.74;77.51;99846.56;5087134;28;20537;-39
2023/05/23 03:31:54;;;;;;;11.70;7.00;;;;;;;14.76;76.34;99831.59;5088027;28;20040;-38
2023/05/23 03:34:22;;;;;;;17.67;6.90;;;;;;;15.01;75.19;99849.59;5089349;28;20035;-39
2023/05/23 03:36:48;;;;;;;10.02;7.05;;;;;;;15.09;74.39;99830.88;5053681;28;20036;-38
2023/05/23 03:39:15;;;;;;;13.95;7.20;;;;;;;15.21;73.96;99848.59;5054167;28;20068;-38
2023/05/23 03:41:41;;;;;;;13.68;7.40;;;;;;;15.29;73.31;99859.50;5050050;28;20143;-39
2023/05/23 03:44:07;;;;;;;16.48;7.05;;;;;;;15.38;72.25;99839.88;5051332;28;20055;-38
2023/05/23 03:46:33;;;;;;;13.63;7.40;;;;;;;15.48;71.67;99843.72;5067692;28;20055;-37
2023/05/23 03:48:59;;;;;;;13.45;7.07;;;;;;;15.54;71.41;99844.28;5067167;28;20044;-39
2023/05/23 03:51:26;;;;;;;15.82;7.50;;;;;;;15.62;70.91;99836.00;5053969;28;20036;-38
2023/05/23 03:53:53;;;;;;;13.77;7.50;;;;;;;15.71;70.04;99839.91;5069958;28;20063;-38
2023/05/23 03:56:18;;;;;;;12.93;6.68;;;;;;;15.79;69.72;99837.72;5053632;28;20055;-38
2023/05/23 03:58:44;;;;;;;13.15;7.53;;;;;;;15.83;69.40;99827.00;5070306;28;20047;-38
2023/05/23 04:01:13;;;;;;;17.00;7.25;;;;;;;15.99;68.95;99829.66;5066902;28;20500;-38
2023/05/23 04:03:39;;;;;;;18.10;7.63;;;;;;;16.15;68.76;99832.28;5035410;28;20047;-38
2023/05/23 04:06:06;;;;;;;12.60;7.40;;;;;;;16.24;67.58;99840.50;5042486;28;20545;-38
2023/05/23 04:08:34;;;;;;;15.38;8.23;;;;;;;16.32;66.96;99829.59;5069231;28;20122;-39
2023/05/23 04:11:00;;;;;;;13.85;7.22;;;;;;;16.37;67.31;99831.03;5070235;28;20032;-38
2023/05/23 04:13:29;;;;;;;10.20;7.20;;;;;;;16.40;66.89;99832.63;5052259;28;20101;-38
2023/05/23 04:15:56;;;;;;;13.63;7.30;;;;;;;16.39;66.05;99829.13;5070028;28;20097;-39
2023/05/23 04:18:23;;;;;;;14.38;7.53;;;;;;;16.42;65.78;99833.38;5069202;28;20148;-39
2023/05/23 04:20:49;;;;;;;11.68;7.35;;;;;;;16.25;65.34;99810.69;5053838;28;20134;-38
2023/05/23 04:23:15;;;;;;;14.20;7.30;;;;;;;16.36;65.68;99834.56;5035740;28;20044;-39
2023/05/23 04:25:44;;;;;;;;;;;;;;;16.32;66.09;99837.44;5088411;28;20042;-39
2023/05/23 04:28:17;;;;;;;15.43;7.75;;;;;;;16.24;65.83;99829.16;5069911;28;19915;-39
2023/05/23 04:30:43;;;;;;;18.48;7.43;;;;;;;16.22;65.82;99823.16;5069644;28;20032;-38
2023/05/23 04:33:10;;;;;;;14.38;7.63;;;;;;;16.24;65.47;99826.53;5068380;28;20047;-38
2023/05/23 04:35:39;;;;;;;12.82;7.95;;;;;;;16.21;65.51;99818.84;5070105;28;20504;-39
2023/05/23 04:38:07;;;;;;;13.65;7.85;;;;;;;16.35;65.09;99830.25;5037797;28;20052;-38
2023/05/23 04:40:33;;;;;;;11.60;7.53;;;;;;;16.48;65.07;99825.16;5052155;28;20039;-38
2023/05/23 04:43:28;;;;;;;15.60;7.78;;;;;;;16.64;64.75;99828.66;5067098;28;20550;-39
2023/05/23 04:46:01;;;;;;;11.50;7.93;;;;;;;16.76;64.14;99827.94;5069173;28;20032;-39
2023/05/23 04:48:47;;;;;;;16.27;7.80;;;;;;;16.89;64.10;99823.69;5086784;28;20106;-39
2023/05/23 04:51:13;;;;;;;17.30;8.10;;;;;;;17.04;64.00;99821.09;5051945;28;20039;-38
2023/05/23 04:53:55;;;;;;;11.38;7.47;;;;;;;17.24;63.81;99831.28;5051994;28;20048;-39
2023/05/23 04:56:21;;;;;;;18.20;8.40;;;;;;;17.27;63.03;99808.28;5065595;28;20040;-39
2023/05/23 04:58:48;;;;;;;19.75;8.60;;;;;;;17.48;62.37;99824.53;5052950;28;20184;-41
2023/05/23 05:01:14;;;;;;;14.48;8.43;;;;;;;17.68;61.97;99837.38;5052555;28;20040;-38
2023/05/23 05:03:40;;;;;;;16.88;8.52;;;;;;;17.82;61.64;99835.66;5052806;28;20122;-38
2023/05/23 05:06:06;;;;;;;17.23;8.27;;;;;;;17.82;61.26;99819.88;5052494;28;20042;-38
2023/05/23 05:08:33;;;;;;;20.27;8.45;;;;;;;18.01;61.18;99833.59;5036696;28;20044;-38
2023/05/23 05:10:59;;;;;;;22.98;9.38;;;;;;;17.95;60.98;99812.94;5062343;28;20064;-39
2023/05/23 05:13:25;;;;;;;15.60;8.45;;;;;;;18.04;60.79;99833.41;5035244;28;20597;-38
2023/05/23 05:15:54;;;;;;;20.58;9.00;;;;;;;18.04;60.49;99854.47;5069164;28;20097;-38
2023/05/23 05:18:20;;;;;;;16.20;7.93;;;;;;;18.02;60.20;99856.31;5068615;28;20126;-38
2023/05/23 05:20:47;;;;;;;21.10;8.63;;;;;;;18.06;60.19;99850.78;5069683;28;20124;-42
2023/05/23 05:23:14;;;;;;;16.45;8.38;;;;;;;18.10;60.07;99857.56;5069270;28;20511;-39
2023/05/23 05:25:41;;;;;;;18.75;8.60;;;;;;;18.14;59.94;99860.84;5068317;28;20036;-40
2023/05/23 05:28:07;;;;;;;15.38;7.63;;;;;;;18.01;59.81;99821.28;5068321;28;20048;-39
2023/05/23 05:30:38;;;;;;;18.08;7.70;;;;;;;18.43;59.45;99870.38;5067894;28;20047;-38
2023/05/23 05:33:04;;;;;;;12.38;7.68;;;;;;;18.60;58.81;99862.28;5051744;28;20070;-38
2023/05/23 05:35:32;;;;;;;13.93;7.38;;;;;;;18.84;58.31;99861.63;5069030;28;20478;-41
2023/05/23 05:37:59;;;;;;;13.70;7.22;;;;;;;18.98;58.14;99859.78;5051069;28;20052;-38
2023/05/23 05:40:25;;;;;;;14.95;7.78;;;;;;;19.09;57.83;99856.44;5069032;28;20487;-39
2023/05/23 05:42:51;;;;;;;15.20;6.22;;;;;;;19.11;57.18;99859.78;5051471;28;20082;-38
2023/05/23 05:45:18;;;;;;;12.50;6.68;;;;;;;18.91;56.65;99842.66;5035141;28;20478;-38
2023/05/23 05:47:46;;;;;;;15.70;6.80;;;;;;;18.80;56.48;99817.97;5088036;28;20537;-41
2023/05/23 05:50:12;;;;;;;15.20;6.38;;;;;;;18.94;56.29;99849.53;5032502;28;20049;-37
2023/05/23 05:52:38;;;;;;;18.35;6.57;;;;;;;18.85;56.13;99850.97;5068686;28;20145;-40
2023/05/23 05:55:07;;;;;;;11.13;6.65;;;;;;;18.87;56.13;99851.72;5035455;28;20611;-41
2023/05/23 05:57:34;;;;;;;13.13;6.22;;;;;;;18.93;56.06;99853.13;5052265;28;20047;-39
2023/05/23 06:00:00;;;;;;;21.20;7.00;;;;;;;19.00;56.35;99846.47;5055113;28;20036;-38
2023/05/23 06:02:30;;;;;;;15.45;6.70;;;;;;;19.11;56.23;99851.03;5069368;28;20032;-40
2023/05/23 06:04:56;;;;;;;11.00;5.90;;;;;;;19.03;55.64;99830.47;5050616;28;20440;-39
2023/05/23 06:07:22;;;;;;;11.10;6.88;;;;;;;19.11;55.37;99828.16;5068060;28;20512;-38
2023/05/23 06:09:48;;;;;;;17.52;6.32;;;;;;;19.45;55.30;99846.06;5094927;28;20046;-40
2023/05/23 06:12:15;;;;;;;17.58;6.75;;;;;;;19.56;55.32;99845.34;5072461;28;20092;-41
2023/05/23 06:14:41;;;;;;;18.58;7.10;;;;;;;19.63;55.23;99840.47;5086934;28;20043;-38
2023/05/23 06:17:08;;;;;;;10.52;6.63;;;;;;;19.68;55.06;99835.75;5031371;28;20087;-40
2023/05/23 06:19:34;;;;;;;17.63;10.20;;;;;;;19.58;55.01;99824.97;5048654;28;20056;-40
2023/05/23 06:22:00;;;;;;;14.15;7.57;;;;;;;19.65;55.02;99834.16;5032377;28;20400;-39
2023/05/23 06:24:26;;;;;;;14.23;7.25;;;;;;;19.63;55.11;99822.84;5032225;28;20039;-38
2023/05/23 06:26:52;;;;;;;16.65;6.63;;;;;;;19.64;55.16;99816.63;5061027;28;20075;-38
2023/05/23 06:29:18;;;;;;;16.80;8.40;;;;;;;19.71;55.05;99814.41;5085796;28;20036;-39
2023/05/23 06:31:44;;;;;;;13.40;6.18;;;;;;;19.66;54.88;99796.28;5067827;28;20032;-40
2023/05/23 06:34:10;;;;;;;15.43;6.30;;;;;;;19.88;54.74;99816.72;5050831;28;20074;-39
2023/05/23 06:36:36;;;;;;;12.85;5.78;;;;;;;19.99;54.63;99821.25;5063784;28;20182;-38
2023/05/23 06:39:02;;;;;;;16.73;5.97;;;;;;;20.03;54.06;99813.00;5058818;28;20138;-39
2023/05/23 06:41:28;;;;;;;10.40;5.88;;;;;;;20.18;53.99;99814.53;5089140;28;20036;-39
2023/05/23 06:43:54;;;;;;;14.43;5.63;;;;;;;20.34;53.77;99810.81;5064306;28;20050;-38
2023/05/23 06:46:24;;;;;;;11.10;5.65;;;;;;;20.43;53.40;99812.78;5066199;28;20084;-40
2023/05/23 06:48:50;;;;;;;13.85;6.15;;;;;;;20.61;53.36;99809.66;5090264;28;20076;-37
2023/05/23 06:51:17;;;;;;;11.10;5.60;;;;;;;20.92;52.73;99788.88;5075998;28;20035;-40
2023/05/23 06:53:43;;;;;;;11.63;5.03;;;;;;;21.72;51.38;99800.34;5073341;28;20622;-41
2023/05/23 06:56:09;;;;;;;8.35;4.85;;;;;;;22.54;48.86;99802.53;5082538;28;20047;-39
2023/05/23 06:58:47;;;;;;;18.98;6.22;;;;;;;23.60;47.49;99785.56;5072023;28;20035;-40
2023/05/23 07:01:14;;;;;;;10.02;4.82;;;;;;;24.54;45.33;99778.19;5072069;28;20051;-38
2023/05/23 07:03:45;;;;;;;9.45;4.78;;;;;;;24.36;44.90;99788.63;5047038;28;21043;-38
2023/05/23 07:06:11;;;;;;;16.40;7.82;;;;;;;24.84;44.39;99789.50;5070839;28;20040;-39
2023/05/23 07:08:39;;;;;;;11.63;5.22;;;;;;;25.06;43.87;99785.75;5068798;28;20119;-38
2023/05/23 07:11:05;;;;;;;9.80;5.05;;;;;;;24.85;43.64;99782.38;5058429;28;20044;-35
2023/05/23 07:13:43;;;;;;;10.90;4.65;;;;;;;25.16;43.37;99781.25;5062478;28;20039;-38
2023/05/23 07:16:16;;;;;;;9.77;4.80;;;;;;;26.72;40.89;99785.69;5027250;28;20048;-39
2023/05/23 07:18:54;;;;;;;9.90;4.87;;;;;;;27.96;38.46;99778.22;5066349;28;20039;-38
2023/05/23 07:21:21;;;;;;;17.90;5.00;;;;;;;28.49;36.91;99772.53;5077010;28;20044;-39
2023/05/23 07:23:48;;;;;;;10.02;4.50;;;;;;;29.13;36.41;99773.59;5078527;28;20036;-37
2023/05/23 07:26:14;;;;;;;10.40;4.45;;;;;;;28.96;35.97;99766.56;5056974;28;20416;-37
2023/05/23 07:28:46;;;;;;;8.00;4.72;;;;;;;28.41;35.64;99777.91;5075105;28;20067;-39
2023/05/23 07:31:13;;;;;;;9.60;4.70;;;;;;;28.44;35.74;99766.00;5075605;28;20028;-37
2023/05/23 07:33:40;;;;;;;14.23;5.17;;;;;;;28.85;35.17;99774.94;5037508;28;20062;-38
2023/05/23 07:36:08;;;;;;;20.00;9.15;;;;;;;29.14;34.95;99767.25;5060802;28;20048;-36
2023/05/23 07:38:34;;;;;;;9.77;4.25;;;;;;;29.12;34.85;99773.75;5037403;28;20144;-37
2023/05/23 07:41:04;;;;;;;14.60;4.25;;;;;;;28.64;34.61;99768.22;5071202;28;20043;-38
2023/05/23 07:43:30;;;;;;;10.57;4.65;;;;;;;28.72;34.64;99770.09;5076853;28;20036;-36
2023/05/23 07:45:56;;;;;;;9.65;4.30;;;;;;;29.32;34.13;99775.09;5070885;28;20151;-38
2023/05/23 07:48:22;;;;;;;12.35;3.92;;;;;;;28.90;33.77;99759.22;5080154;28;20114;-38
2023/05/23 07:50:48;;;;;;;12.93;4.20;;;;;;;29.29;33.83;99772.72;5061185;28;20128;-36
2023/05/23 07:53:15;;;;;;;12.40;3.90;;;;;;;29.41;33.26;99777.59;5077474;28;20147;-38
2023/05/23 07:55:42;;;;;;;9.43;4.10;;;;;;;29.18;33.32;99781.94;5078425;28;20381;-38
2023/05/23 07:58:08;;;;;;;13.52;4.15;;;;;;;29.75;32.74;99782.69;5090419;28;20036;-37
2023/05/23 08:00:35;;;;;;;15.15;4.63;;;;;;;29.68;32.69;99778.16;5080862;28;20066;-36
2023/05/23 08:03:11;;;;;;;12.02;4.28;;;;;;;29.55;32.39;99764.50;5055998;28;20480;-37
2023/05/23 08:05:48;;;;;;;9.07;3.83;;;;;;;29.64;32.68;99782.22;5078425;28;20054;-37
2023/05/23 08:08:15;;;;;;;12.80;3.88;;;;;;;28.93;32.98;99783.81;5076085;28;20039;-38
2023/05/23 08:10:41;;;;;;;8.85;3.40;;;;;;;28.78;33.20;99785.50;5071883;28;20494;-40
2023/05/23 08:13:13;;;;;;;11.75;4.15;;;;;;;28.62;32.89;99770.22;5079456;28;20472;-39
2023/05/23 08:15:53;;;;;;;9.48;4.00;;;;;;;28.38;34.10;99782.72;5058666;28;20154;-34
2023/05/23 08:18:23;;;;;;;8.15;3.40;;;;;;;27.84;34.64;99771.50;5051026;28;20036;-35
2023/05/23 08:20:49;;;;;;;8.65;3.30;;;;;;;27.24;35.59;99776.81;5091259;28;20546;-36
2023/05/23 08:23:16;;;;;;;9.43;3.60;;;;;;;27.18;35.79;99779.25;5075830;28;20150;-37
2023/05/23 08:25:42;;;;;;;7.35;3.42;;;;;;;26.65;36.50;99780.13;5078479;28;20514;-37
2023/05/23 08:28:08;;;;;;;15.18;3.97;;;;;;;26.24;37.47;99775.38;5076292;28;20038;-37
2023/05/23 08:30:49;;;;;;;11.93;4.25;;;;;;;27.12;36.95;99779.88;5074933;28;20500;-37
2023/05/23 08:33:15;;;;;;;13.13;4.57;;;;;;;27.82;36.40;99773.50;5060865;28;20130;-34
2023/05/23 08:35:43;;;;;;;;;;;;;;;28.19;36.17;99778.50;5075888;28;20046;-34
2023/05/23 08:38:12;;;;;;;10.70;4.32;;;;;;;28.40;36.36;99773.53;5078152;28;19915;-35
2023/05/23 08:40:53;;;;;;;10.35;4.80;;;;;;;28.19;36.14;99757.94;5071950;28;20047;-34
2023/05/23 08:43:21;;;;;;;19.35;5.68;;;;;;;28.25;36.44;99767.16;5053938;28;20044;-36
2023/05/23 08:45:48;;;;;;;7.55;4.40;;;;;;;28.49;36.15;99766.34;5053514;28;20036;-37
2023/05/23 08:48:16;;;;;;;10.32;3.83;;;;;;;28.73;36.07;99755.72;5067321;28;20092;-36
2023/05/23 08:50:46;;;;;;;11.15;4.53;;;;;;;29.25;35.26;99766.88;5093082;28;20406;-35
2023/05/23 08:53:19;;;;;;;;;;;;;;;29.76;34.64;99768.28;5076781;28;20055;-34
2023/05/23 08:55:50;;;;;;;7.03;4.30;;;;;;;29.51;34.78;99769.38;5058364;28;19923;-36
2023/05/23 08:58:23;;;;;;;8.50;4.03;;;;;;;29.53;34.58;99763.81;5050193;28;20036;-36
2023/05/23 09:00:54;;;;;;;7.90;4.00;;;;;;;29.58;34.79;99748.06;5067006;28;20154;-35
2023/05/23 09:03:22;;;;;;;12.13;4.45;;;;;;;29.53;35.12;99742.38;5034317;28;20077;-36
2023/05/23 09:06:09;;;;;;;8.88;3.78;;;;;;;29.33;35.27;99768.72;5086637;28;20044;-37
2023/05/23 09:08:37;;;;;;;9.52;4.30;;;;;;;29.04;35.95;99758.56;5061983;28;20503;-35
2023/05/23 09:11:04;;;;;;;9.80;3.97;;;;;;;28.67;36.35;99760.88;5088111;28;20035;-35
2023/05/23 09:13:33;;;;;;;14.55;4.32;;;;;;;28.38;36.89;99764.81;5061447;28;20043;-35
2023/05/23 09:16:02;;;;;;;;;;;;;;;27.93;37.43;99767.03;5049689;28;20089;-36
2023/05/23 09:18:38;;;;;;;10.07;3.65;;;;;;;27.56;37.95;99768.19;5068875;28;19920;-35
2023/05/23 09:21:05;;;;;;;16.65;4.20;;;;;;;27.31;38.67;99769.84;5068549;28;20097;-36
2023/05/23 09:23:33;;;;;;;;;;;;;;;27.42;38.67;99773.25;5071331;28;20067;-35
2023/05/23 09:26:03;;;;;;;4.90;3.25;;;;;;;27.49;38.38;99777.78;5052560;28;19915;-34
2023/05/23 09:28:34;;;;;;;6.22;3.40;;;;;;;27.50;38.07;99782.19;5051579;28;20040;-34
2023/05/23 09:31:08;;;;;;;5.40;2.95;;;;;;;27.84;38.19;99789.38;5085566;28;20040;-35
2023/05/23 09:33:37;;;;;;;10.02;3.20;;;;;;;28.08;38.22;99789.44;5050551;28;20420;-36
2023/05/23 09:36:05;;;;;;;7.78;3.25;;;;;;;28.32;38.10;99786.03;5066169;28;20075;-35
2023/05/23 09:38:31;;;;;;;5.30;2.78;;;;;;;28.50;37.91;99778.72;5073403;28;20542;-35
2023/05/23 09:40:58;;;;;;;8.23;2.95;;;;;;;28.49;37.93;99780.56;5061140;28;20092;-35
2023/05/23 09:43:24;;;;;;;5.25;2.70;;;;;;;28.05;38.40;99800.50;5073131;28;20035;-35
2023/05/23 09:45:53;;;;;;;5.60;3.03;;;;;;;27.36;39.46;99772.91;5091922;28;20044;-36
2023/05/23 09:48:19;;;;;;;9.68;3.58;;;;;;;27.18;40.15;99803.28;5091079;28;20043;-36
2023/05/23 09:50:45;;;;;;;8.75;3.05;;;;;;;27.65;39.40;99798.44;5064763;28;20044;-35
2023/05/23 09:53:11;;;;;;;4.57;3.08;;;;;;;27.58;39.25;99798.22;5050540;28;20426;-37
2023/05/23 09:55:39;;;;;;;5.47;3.20;;;;;;;27.31;39.70;99793.88;5068757;28;20145;-34
2023/05/23 09:58:05;;;;;;;9.57;2.92;;;;;;;26.91;40.01;99797.06;5087992;28;20032;-35
2023/05/23 10:00:31;;;;;;;14.93;3.60;;;;;;;26.25;41.14;99804.56;5091503;28;20040;-36
2023/05/23 10:03:06;;;;;;;10.93;3.20;;;;;;;25.05;43.50;99802.69;5088439;28;20097;-34
2023/05/23 10:05:48;;;;;;;9.18;3.80;;;;;;;24.59;44.90;99807.84;5075065;28;20440;-35
2023/05/23 10:08:21;;;;;;;9.27;3.50;;;;;;;24.10;46.46;99803.38;5085045;28;20035;-34
2023/05/23 10:11:12;;;;;;;12.30;3.75;;;;;;;23.90;47.47;99805.97;5069129;28;20051;-33
2023/05/23 10:13:46;;;;;;;5.90;3.45;;;;;;;23.69;48.26;99801.69;5089090;28;20134;-34
2023/05/23 10:16:21;;;;;;;11.38;3.45;;;;;;;23.68;48.68;99810.63;5092480;28;20035;-34
2023/05/23 10:19:02;;;;;;;8.73;3.67;;;;;;;23.67;48.81;99800.97;5094925;28;20039;-34
2023/05/23 10:21:49;;;;;;;9.30;3.88;;;;;;;23.39;49.61;99808.66;5067067;28;20040;-35
2023/05/23 10:24:15;;;;;;;12.20;3.58;;;;;;;23.29;49.48;99801.59;5053151;28;20044;-34
2023/05/23 10:26:42;;;;;;;9.77;2.97;;;;;;;23.23;49.79;99806.47;5063413;28;20051;-35
2023/05/23 10:29:08;;;;;;;8.70;3.85;;;;;;;23.02;50.30;99816.22;5068386;28;20036;-34
2023/05/23 10:31:37;;;;;;;11.38;3.70;;;;;;;22.77;50.97;99814.75;5067131;28;20043;-36
2023/05/23 10:34:26;;;;;;;7.60;3.72;;;;;;;22.41;52.33;99812.41;5074055;28;20055;-44
2023/05/23 10:37:05;;;;;;;7.00;3.70;;;;;;;22.35;52.54;99810.25;5086037;28;20040;-35
2023/05/23 10:40:06;;;;;;;6.53;4.13;;;;;;;22.26;53.18;99808.38;5083966;28;20044;-34
2023/05/23 10:42:41;;;;;;;13.98;3.80;;;;;;;21.90;53.55;99810.31;5062846;28;20055;-34
2023/05/23 10:45:18;;;;;;;10.82;4.28;;;;;;;21.45;54.98;99792.75;5051921;28;20127;-33
2023/05/23 10:47:49;;;;;;;7.03;3.45;;;;;;;21.35;54.85;99774.09;5086694;28;20043;-34
2023/05/23 10:50:34;;;;;;;7.25;3.88;;;;;;;21.41;55.53;99813.28;5066920;28;20525;-35
2023/05/23 10:53:01;;;;;;;7.53;4.03;;;;;;;21.54;55.53;99816.69;5077026;28;20099;-34
2023/05/23 10:55:34;;;;;;;8.83;4.20;;;;;;;21.61;55.90;99810.91;5064586;28;20055;-35
2023/05/23 10:58:10;;;;;;;9.13;4.13;;;;;;;21.60;56.54;99815.38;5070026;28;20044;-34
2023/05/23 11:00:36;;;;;;;10.73;4.47;;;;;;;21.43;56.79;99810.53;5086266;28;20048;-35
2023/05/23 11:03:05;;;;;;;7.13;4.50;;;;;;;21.37;57.60;99803.91;5082315;28;20093;-35
2023/05/23 11:05:32;;;;;;;8.18;4.13;;;;;;;21.25;58.20;99815.41;5085378;28;20067;-34
2023/05/23 11:08:16;;;;;;;7.38;4.47;;;;;;;21.12;59.36;99814.66;5071851;28;20064;-35
2023/05/23 11:10:53;;;;;;;7.43;4.60;;;;;;;20.89;60.11;99812.88;5082185;28;20127;-34
2023/05/23 11:13:20;;;;;;;9.88;4.95;;;;;;;20.48;61.89;99819.41;5077117;28;20116;-35
2023/05/23 11:15:46;;;;;;;11.90;4.85;;;;;;;20.34;63.44;99819.59;5049010;28;20032;-35
2023/05/23 11:18:21;;;;;;;7.97;5.03;;;;;;;20.27;64.83;99805.94;5070783;28;20156;-34
2023/05/23 11:20:49;;;;;;;8.25;4.97;;;;;;;20.22;65.66;99801.94;5063486;28;20044;-34
2023/05/23 11:23:15;;;;;;;8.18;4.60;;;;;;;20.17;66.36;99812.00;5066949;28;20135;-34
2023/05/23 11:25:43;;;;;;;13.75;6.10;;;;;;;20.12;67.00;99809.69;5048100;28;20144;-34
2023/05/23 11:28:10;;;;;;;13.77;5.72;;;;;;;19.93;68.03;99798.75;5087141;28;20689;-34
2023/05/23 11:30:37;;;;;;;11.13;6.00;;;;;;;19.77;68.69;99811.34;5079164;28;20047;-35
2023/05/23 11:33:13;;;;;;;11.57;6.55;;;;;;;19.56;70.64;99815.47;5067830;28;20110;-34
2023/05/23 11:35:40;;;;;;;11.40;6.72;;;;;;;19.42;71.63;99814.59;5066582;28;20043;-35
2023/05/23 11:38:06;;;;;;;11.70;6.55;;;;;;;19.38;72.53;99817.53;5085750;28;20051;-34